Alligator Point, Florida
Current Conditions -  °F | °C
As of 11:53 PM on Saturday 20 Dec 2014 (Local Time) from KTLH Reporting Station
Overcast Overcast  
Wind Chill: 14°   Ceiling: 3600
Heat Index: 14°   Visibility: 10mi
Dew Point: 10°   Wind: 6mph
Humidity: 77%   Direction: 40°NE
Pressure: 30.11"   Gusts: NA
Location:  30.0223°N, 84.3911°W
Report Text: KTLH 210453Z AUTO 04005KT 10SM OVC036 14/10 A3011 RMK AO2 RAB18E27 SLP197 P0000 T01390100 401670106 $
Loading
Personal Weather Stations






























Interactive Weather Map New forecast layout! Learn more

10-Day Weather Forecast

Advertisements
Track Severe Weather on mobile